Latest Weather Observations for Holsworthy

IDN60801

Issued at 10:03 pm EST Sunday 28 August 2016 (issued every 30 minutes, with the page automatically refreshed every 10 minutes)

About weather observations | Map of weather stations | Latest weather observations for NSW | Other Formats
Station Details ID: 066161 Name: HOLSWORTHY AERODROME AWS Lat: -33.99 Lon: 150.95 Height: 68.16 m
Data from the previous 72 hours. | See also: Recent months at Holsworthy
Date/Time
EST
Temp
°C
App
Temp
°C
Dew
Point
°C
Rel
Hum
%
Delta-T
°C
Wind Press
QNH
hPa
Press
MSL
hPa
Rain since
9am
mm
Dir  Spd
km/h
Gust
km/h
Spd
kts
Gust
kts
28/10:00pm 7.0 4.7 4.7 85 1.0 W 6 9 3 5 1023.7 1023.7 0.0
28/09:30pm 7.5 5.9 4.6 82 1.3 SW 2 7 1 4 1023.7 1023.7 0.0
28/09:00pm 7.4 4.8 4.4 81 1.3 SW 7 11 4 6 1023.6 1023.6 0.0
28/08:30pm 8.0 6.8 4.8 80 1.4 CALM 0 0 0 0 1023.5 1023.5 0.0
28/08:00pm 8.5 7.2 3.9 73 2.0 CALM 0 0 0 0 1023.2 1023.2 0.0
28/07:30pm 10.5 9.4 4.9 68 2.5 CALM 0 0 0 0 1022.8 1022.8 0.0
28/07:00pm 10.9 8.0 4.8 66 2.8 S 9 11 5 6 1022.6 1022.6 0.0
28/06:30pm 12.2 9.8 5.1 62 3.3 S 7 9 4 5 1022.2 1022.2 0.0
28/06:00pm 12.2 9.6 4.4 59 3.5 S 7 7 4 4 1021.9 1021.9 0.0
28/05:30pm 14.5 11.2 4.5 51 4.6 SSW 11 13 6 7 1021.7 1021.7 0.0
28/05:00pm 16.3 12.9 4.0 44 5.7 SSW 11 15 6 8 1021.5 1021.5 0.0
28/04:30pm 17.4 13.2 3.7 40 6.4 SW 15 20 8 11 1021.3 1021.3 0.0
28/04:00pm 18.2 14.0 4.0 39 6.7 WSW 15 22 8 12 1021.0 1021.0 0.0
28/03:30pm 17.8 12.6 3.7 39 6.6 WSW 20 28 11 15 1021.1 1021.1 0.0
28/03:00pm 17.7 12.4 3.2 38 6.7 WSW 20 30 11 16 1021.1 1021.1 0.0
28/02:30pm 18.2 12.4 4.4 40 6.6 W 24 35 13 19 1020.8 1020.8 0.0
28/02:00pm 19.5 14.2 3.2 34 7.6 WSW 20 30 11 16 1020.5 1020.5 0.0
28/01:30pm 19.5 15.0 4.0 36 7.4 W 17 28 9 15 1020.5 1020.5 0.0
28/01:00pm 19.6 15.8 4.1 36 7.4 WSW 13 26 7 14 1020.6 1020.6 0.0
28/12:30pm 19.0 15.1 3.2 35 7.4 WSW 13 24 7 13 1020.8 1020.8 0.0
28/12:00pm 18.5 13.9 3.6 37 7.0 WSW 17 28 9 15 1021.3 1021.3 0.0
28/11:30am 18.0 12.9 3.1 37 6.9 W 19 28 10 15 1021.7 1021.7 0.0
28/11:00am 17.1 12.9 3.8 41 6.2 W 15 22 8 12 1022.1 1022.1 0.0
28/10:30am 15.9 11.6 3.4 43 5.7 WSW 15 26 8 14 1022.4 1022.4 0.0
28/10:00am 15.3 10.9 5.0 50 4.8 WSW 17 22 9 12 1022.7 1022.7 0.0
28/09:30am 13.8 9.6 3.9 51 4.5 W 15 22 8 12 1022.7 1022.7 0.0
28/09:00am 12.4 9.9 4.6 59 3.6 WNW 7 13 4 7 1022.8 1022.8 0.0
28/08:30am 11.2 8.6 4.2 62 3.1 WNW 7 11 4 6 1022.9 1022.9 0.0
28/08:00am 9.3 6.8 3.9 69 2.4 WNW 6 9 3 5 1022.9 1022.9 0.0
28/07:30am 7.4 4.7 2.9 73 1.9 NNE 6 7 3 4 1022.8 1022.8 0.0
28/07:00am 6.7 3.1 2.8 76 1.6 W 11 13 6 7 1022.5 1022.5 0.0
28/06:30am 6.4 3.1 2.5 76 1.6 WNW 9 13 5 7 1022.1 1022.1 0.0
28/06:00am 6.8 3.2 2.7 75 1.7 W 11 13 6 7 1021.7 1021.7 0.0
28/05:30am 6.8 3.1 2.5 74 1.8 WNW 11 15 6 8 1021.4 1021.4 0.0
28/05:00am 7.0 3.4 2.7 74 1.8 WNW 11 15 6 8 1021.4 1021.4 0.0
28/04:30am 6.4 3.0 2.1 74 1.8 WNW 9 11 5 6 1021.3 1021.3 0.0
28/04:00am 6.5 3.2 2.2 74 1.8 W 9 13 5 7 1021.3 1021.3 0.0
28/03:30am 6.3 3.0 2.6 77 1.5 W 9 15 5 8 1021.1 1021.1 0.0
28/03:00am 6.2 3.2 2.3 76 1.6 WSW 7 11 4 6 1021.0 1021.0 0.0
28/02:30am 6.3 3.0 2.6 77 1.5 W 9 15 5 8 1021.3 1021.3 0.0
28/02:00am 6.4 2.8 2.7 77 1.5 WSW 11 15 6 8 1021.4 1021.4 0.0
28/01:30am 7.4 3.8 2.9 73 1.9 WSW 11 17 6 9 1021.8 1021.8 0.0
28/01:00am 7.4 3.8 2.9 73 1.9 WSW 11 17 6 9 1021.8 1021.8 0.0
28/12:30am 8.4 4.4 3.1 69 2.3 SW 13 20 7 11 1021.8 1021.8 0.0
28/12:00am 7.5 3.8 2.6 71 2.0 SW 11 15 6 8 1021.9 1021.9 0.0
 
Date/Time
EST
Temp
°C
App
Temp
°C
Dew
Point
°C
Rel
Hum
%
Delta-T
°C
Wind Press
QNH
hPa
Press
MSL
hPa
Rain since
9am
mm
Dir  Spd
km/h
Gust
km/h
Spd
kts
Gust
kts
27/11:30pm 8.5 4.9 2.9 68 2.4 SW 11 15 6 8 1021.6 1021.6 0.0
27/11:00pm 8.6 5.7 2.6 66 2.5 SW 7 11 4 6 1021.7 1021.7 0.0
27/10:30pm 9.5 5.9 2.8 63 2.9 SSW 11 17 6 9 1021.7 1021.7 0.0
27/10:00pm 9.9 6.1 4.1 67 2.6 SW 13 17 7 9 1021.6 1021.6 0.0
27/09:30pm 9.4 7.2 7.7 89 0.8 SSW 9 13 5 7 1021.4 1021.4 0.0
27/09:00pm 7.7 5.5 5.3 85 1.1 SW 6 7 3 4 1021.3 1021.3 0.0
27/08:30pm 8.6 6.4 6.1 84 1.1 SW 7 7 4 4 1021.5 1021.5 0.0
27/08:00pm 9.1 7.4 6.0 81 1.4 SSW 4 7 2 4 1021.5 1021.5 0.0
27/07:30pm 11.3 9.8 6.6 73 2.2 ENE 4 6 2 3 1021.1 1021.1 0.0
27/07:00pm 13.3 11.3 6.9 65 3.1 ENE 7 11 4 6 1020.6 1020.6 0.0
27/06:30pm 13.7 11.2 6.6 62 3.4 E 9 13 5 7 1020.2 1020.2 0.0
27/06:00pm 13.3 11.5 5.2 58 3.8 ENE 4 13 2 7 1020.0 1020.0 0.0
27/05:30pm 14.3 13.2 4.9 53 4.4 CALM 0 0 0 0 1020.0 1020.0 0.0
27/05:00pm 18.4 16.4 4.2 39 6.7 N 4 7 2 4 1020.0 1020.0 0.0
27/04:30pm 18.0 15.1 1.5 33 7.4 NNW 6 9 3 5 1019.8 1019.8 0.0
27/04:00pm 18.8 16.0 3.4 36 7.2 NW 7 9 4 5 1019.8 1019.8 0.0
27/03:30pm 18.8 15.9 2.6 34 7.5 NNW 7 15 4 8 1019.9 1019.9 0.0
27/03:00pm 18.1 14.3 2.0 34 7.3 N 11 19 6 10 1020.0 1020.0 0.0
27/02:30pm 18.1 14.7 2.0 34 7.3 W 9 17 5 9 1020.2 1020.2 0.0
27/02:00pm 17.8 14.5 2.2 35 7.1 NW 9 17 5 9 1020.5 1020.5 0.0
27/01:30pm 17.5 13.7 1.5 34 7.2 NNE 11 17 6 9 1020.7 1020.7 0.0
27/01:00pm 17.0 13.3 2.2 37 6.7 N 11 19 6 10 1021.2 1021.2 0.0
27/12:30pm 17.2 13.4 3.8 41 6.3 N 13 20 7 11 1021.7 1021.7 0.0
27/12:00pm 16.2 12.7 3.6 43 5.8 NNW 11 17 6 9 1022.4 1022.4 0.0
27/11:30am 16.0 13.1 4.4 46 5.4 WNW 9 15 5 8 1022.9 1022.9 0.0
27/11:00am 15.4 12.3 3.5 45 5.4 W 9 15 5 8 1023.1 1023.1 0.0
27/10:30am 14.5 11.1 3.9 49 4.9 WSW 11 17 6 9 1023.4 1023.4 0.0
27/10:00am 13.7 9.8 3.5 50 4.6 WSW 13 17 7 9 1023.3 1023.3 0.0
27/09:30am 12.7 8.7 2.8 51 4.4 W 13 20 7 11 1023.5 1023.5 0.0
27/09:00am 11.6 6.2 2.4 53 4.0 WSW 20 28 11 15 1023.4 1023.4 0.0
27/08:30am 10.5 5.9 3.8 63 3.0 WSW 17 24 9 13 1023.3 1023.3 0.0
27/08:00am 9.2 5.3 3.4 67 2.5 WSW 13 17 7 9 1023.1 1023.1 0.0
27/07:30am 7.7 3.8 3.2 73 1.9 WSW 13 17 7 9 1023.0 1023.0 0.0
27/07:00am 6.4 2.8 2.7 77 1.5 WSW 11 17 6 9 1022.9 1022.9 0.0
27/06:30am 5.5 1.8 2.3 80 1.3 WSW 11 15 6 8 1022.7 1022.7 0.0
27/06:00am 5.5 2.2 2.3 80 1.3 WSW 9 13 5 7 1022.4 1022.4 0.0
27/05:30am 5.7 2.0 2.5 80 1.3 SW 11 17 6 9 1022.1 1022.1 0.0
27/05:00am 5.5 1.8 2.3 80 1.3 WSW 11 15 6 8 1021.8 1021.8 0.0
27/04:30am 5.6 1.9 2.4 80 1.3 WSW 11 13 6 7 1021.6 1021.6 0.0
27/04:00am 5.8 2.5 2.4 79 1.4 WSW 9 11 5 6 1021.6 1021.6 0.0
27/03:30am 6.5 2.8 2.6 76 1.6 SW 11 17 6 9 1021.6 1021.6 0.0
27/03:00am 6.8 2.8 2.9 76 1.6 SW 13 17 7 9 1021.5 1021.5 0.0
27/02:30am 6.7 3.2 3.3 79 1.4 SW 11 15 6 8 1021.6 1021.6 0.0
27/02:00am 6.3 2.9 4.1 86 0.9 SW 11 15 6 8 1021.7 1021.7 0.0
27/01:30am 5.8 3.2 4.4 91 0.6 WSW 7 9 4 5 1021.8 1021.8 0.0
27/01:00am 6.3 3.9 4.1 86 0.9 SSW 6 9 3 5 1021.9 1021.9 0.0
27/12:30am 7.5 4.8 5.5 87 0.9 SSW 9 13 5 7 1021.9 1021.9 0.0
27/12:00am 7.1 4.0 5.6 90 0.7 SW 11 13 6 7 1021.8 1021.8 0.0
 
Date/Time
EST
Temp
°C
App
Temp
°C
Dew
Point
°C
Rel
Hum
%
Delta-T
°C
Wind Press
QNH
hPa
Press
MSL
hPa
Rain since
9am
mm
Dir  Spd
km/h
Gust
km/h
Spd
kts
Gust
kts
26/11:30pm 7.2 4.1 5.5 89 0.8 WSW 11 13 6 7 1021.7 1021.7 0.0
26/11:00pm 7.9 4.9 5.9 87 0.9 SW 11 15 6 8 1021.6 1021.6 0.0
26/10:30pm 7.8 4.8 6.1 89 0.8 WSW 11 13 6 7 1021.4 1021.4 0.0
26/10:00pm 8.5 7.2 6.1 85 1.1 SW 2 9 1 5 1021.4 1021.4 0.0
26/09:30pm 9.5 7.5 6.2 80 1.5 S 6 7 3 4 1021.3 1021.3 0.0
26/09:00pm 10.4 9.6 6.4 76 1.9 CALM 0 0 0 0 1021.2 1021.2 0.0
26/08:30pm 12.1 11.0 6.8 70 2.5 SSW 2 7 1 4 1020.9 1020.9 0.0
26/08:00pm 11.8 9.3 6.7 71 2.4 WSW 9 13 5 7 1020.6 1020.6 0.0
26/07:30pm 11.8 9.8 6.9 72 2.3 W 7 9 4 5 1020.2 1020.2 0.0
26/07:00pm 12.6 10.4 6.4 66 2.9 S 7 11 4 6 1019.8 1019.8 0.0
26/06:30pm 13.2 9.5 6.5 64 3.2 SSE 15 24 8 13 1019.5 1019.5 0.0
26/06:00pm 13.3 9.6 6.4 63 3.3 SSE 15 22 8 12 1019.1 1019.1 0.0
26/05:30pm 13.5 9.1 6.6 63 3.3 S 19 30 10 16 1018.9 1018.9 0.0
26/05:00pm 13.7 10.8 6.6 62 3.4 SSE 11 17 6 9 1018.6 1018.6 0.0
26/04:30pm 14.5 9.7 5.6 55 4.2 SSE 20 28 11 15 1018.4 1018.4 0.0
26/04:00pm 14.7 9.9 5.8 55 4.2 SSE 20 30 11 16 1018.1 1018.1 0.0
26/03:30pm 15.3 11.2 6.3 55 4.4 SE 17 26 9 14 1017.7 1017.7 0.0
26/03:00pm 15.4 11.7 6.2 54 4.5 SE 15 20 8 11 1017.5 1017.5 0.0
26/02:30pm 14.7 10.7 5.0 52 4.6 SSE 15 24 8 13 1017.6 1017.6 0.0
26/02:00pm 15.4 11.7 4.5 48 5.1 SSE 13 19 7 10 1017.7 1017.7 0.0
26/01:30pm 15.0 11.7 4.7 50 4.8 S 11 20 6 11 1017.8 1017.8 0.0
26/01:00pm 15.2 11.4 3.7 46 5.3 SSW 13 28 7 15 1017.9 1017.9 0.0
26/12:30pm 14.9 10.8 4.6 50 4.8 SSW 15 24 8 13 1018.3 1018.3 0.0
26/12:00pm 14.7 10.6 4.1 49 4.9 S 15 22 8 12 1018.5 1018.5 0.0
26/11:30am 15.1 11.1 5.0 51 4.8 SW 15 24 8 13 1018.6 1018.6 0.0
26/11:00am 14.1 9.6 4.4 52 4.5 W 17 24 9 13 1018.9 1018.9 0.0
26/10:30am 13.2 8.4 4.4 55 4.0 WSW 19 26 10 14 1018.9 1018.9 0.0
26/10:00am 12.3 8.1 4.0 57 3.7 W 15 20 8 11 1018.9 1018.9 0.0
26/09:30am 11.1 7.1 2.9 57 3.6 SW 13 20 7 11 1019.1 1019.1 0.0
26/09:00am 9.8 5.0 2.4 60 3.1 WSW 17 24 9 13 1019.0 1019.0 0.0
26/08:30am 8.6 4.0 3.6 71 2.2 WSW 17 26 9 14 1018.7 1018.7 0.0
26/08:00am 6.7 2.9 3.9 82 1.2 WSW 13 15 7 8 1018.8 1018.8 0.0
26/07:30am 5.6 2.1 3.4 86 0.9 WSW 11 13 6 7 1018.8 1018.8 0.0
26/07:00am 4.7 1.6 3.4 91 0.5 SW 9 13 5 7 1018.6 1018.6 0.0
26/06:30am 3.3 0.4 2.4 94 0.4 SW 7 11 4 6 1018.0 1018.0 0.0
26/06:00am 3.0 0.0 1.7 91 0.5 WSW 7 11 4 6 1017.5 1017.5 0.0
26/05:30am 3.8 0.5 2.5 91 0.5 SW 9 11 5 6 1017.3 1017.3 0.0
26/05:00am 4.4 1.5 2.8 89 0.7 SSW 7 11 4 6 1016.9 1016.9 0.0
26/04:30am 4.7 1.5 2.9 88 0.7 SW 9 13 5 7 1016.4 1016.4 0.0
26/04:00am 4.4 1.1 2.6 88 0.7 SW 9 13 5 7 1016.0 1016.0 0.0
26/03:30am 4.4 1.1 2.4 87 0.8 WSW 9 11 5 6 1015.9 1015.9 0.0
26/03:00am 5.4 2.2 2.9 84 1.0 SW 9 13 5 7 1015.8 1015.8 0.0
26/02:30am 5.2 1.9 2.6 83 1.1 SW 9 11 5 6 1016.0 1016.0 0.0
26/02:00am 6.0 2.7 2.5 78 1.4 WSW 9 13 5 7 1016.1 1016.1 0.0
26/01:30am 6.7 3.4 2.4 74 1.8 SW 9 13 5 7 1016.2 1016.2 0.0
26/01:00am 7.4 4.1 2.5 71 2.0 SSW 9 13 5 7 1016.1 1016.1 0.0
26/12:30am 7.7 4.0 2.6 70 2.1 SSW 11 17 6 9 1015.9 1015.9 0.0
26/12:00am 7.5 3.8 2.4 70 2.1 SW 11 17 6 9 1015.5 1015.5 0.0
 
Date/Time
EST
Temp
°C
App
Temp
°C
Dew
Point
°C
Rel
Hum
%
Delta-T
°C
Wind Press
QNH
hPa
Press
MSL
hPa
Rain since
9am
mm
Dir  Spd
km/h
Gust
km/h
Spd
kts
Gust
kts
25/11:30pm 7.3 4.3 1.8 68 2.3 SW 7 9 4 5 1015.5 1015.5 0.0
25/11:00pm 7.9 4.4 1.5 64 2.6 WSW 9 13 5 7 1015.0 1015.0 0.0
25/10:30pm 9.1 4.9 1.5 59 3.1 W 13 24 7 13 1014.8 1014.8 0.0

Other Formats:

Comma delimited format used in spreadsheet applications
http://www.bom.gov.au/fwo/IDN60801/IDN60801.95761.axf

JavaScript Object Notation format (JSON) in row-major order
http://www.bom.gov.au/fwo/IDN60801/IDN60801.95761.json